KPUW/PUW METAR and TAF weather

Enter ICAO airport designator
Station Type Date Time Source
KPUW METAR 2022/01/23 03:53 UTC NOAA

KPUW 230353Z AUTO 00000KT 10SM CLR M01/M03 A3049 RMK AO2 SLP352 T10061028


Station Type Date Time Source
KPUW Decoded METAR 2022/01/23 03:53 UTC NOAA

PULLMAN/MOSCOW RGNL AIRPORT , WA, United States (KPUW) 46-45N 117-07W 773M
Jan 22, 2022 - 10:53 PM EST / 2022.01.23 0353 UTC
Wind: Calm:0
Visibility: 10 mile(s):0
Sky conditions: clear
Temperature: 30.9 F (-0.6 C)
Dew Point: 27.0 F (-2.8 C)
Relative Humidity: 85%
Pressure (altimeter): 30.49 in. Hg (1032 hPa)
ob: KPUW 230353Z AUTO 00000KT 10SM CLR M01/M03 A3049 RMK AO2 SLP352 T10061028
cycle: 4

Station Type Date Time Source
KPUW TAF 2022/01/23 12:42 UTC NOAA

TAF KPUW 231139Z 2312/2412 12005KT 1/2SM FG BKN005
FM231800 11006KT 6SM BR SCT012
FM240000 18005KT P6SM SCT020
FM240600 14004KT 1SM BR VCFG BKN015

Example: see airport list